createdAt,value
2022-07-27T00:00:46.939Z,0.00
2022-07-27T00:01:50.601Z,0.00
2022-07-27T00:02:51.370Z,0.00
2022-07-27T00:03:46.950Z,0.00
2022-07-27T00:04:46.902Z,0.00
2022-07-27T00:05:46.873Z,0.00
2022-07-27T00:06:46.865Z,0.00
2022-07-27T00:07:46.854Z,0.00
2022-07-27T00:08:46.880Z,0.00
2022-07-27T00:09:46.876Z,0.00
2022-07-27T00:10:46.868Z,0.00
2022-07-27T00:11:46.861Z,0.00
2022-07-27T00:12:46.861Z,0.00
2022-07-27T00:13:46.861Z,0.00
2022-07-27T00:14:46.869Z,0.00
2022-07-27T00:15:46.876Z,0.00
2022-07-27T00:16:47.005Z,0.00
2022-07-27T00:17:46.878Z,0.00
2022-07-27T00:18:46.873Z,0.00
2022-07-27T00:19:46.889Z,0.00
2022-07-27T00:20:46.875Z,0.00
2022-07-27T00:21:46.876Z,0.00
2022-07-27T00:22:46.883Z,0.00
2022-07-27T00:23:46.885Z,0.00
2022-07-27T00:24:46.880Z,0.00
2022-07-27T00:25:46.887Z,0.00
2022-07-27T00:26:46.884Z,0.00
2022-07-27T00:27:46.887Z,0.00
2022-07-27T00:28:46.905Z,0.00
2022-07-27T00:29:46.890Z,0.00
2022-07-27T00:30:46.885Z,0.00
2022-07-27T00:31:46.923Z,0.00
2022-07-27T00:32:46.896Z,0.00
2022-07-27T00:33:46.899Z,0.00
2022-07-27T00:34:46.904Z,0.00
2022-07-27T00:35:46.901Z,0.00
2022-07-27T00:36:46.892Z,0.00
2022-07-27T00:37:46.908Z,0.00
2022-07-27T00:38:46.900Z,0.00
2022-07-27T00:39:46.898Z,0.00
2022-07-27T00:40:46.907Z,0.00
2022-07-27T00:41:46.912Z,0.00
2022-07-27T00:42:46.919Z,0.00
2022-07-27T00:43:46.906Z,0.00
2022-07-27T00:44:46.916Z,0.00
2022-07-27T00:45:46.903Z,0.00
2022-07-27T00:46:46.971Z,0.00
2022-07-27T00:47:49.540Z,0.00
2022-07-27T00:48:46.959Z,0.00
2022-07-27T00:49:46.910Z,0.00
2022-07-27T00:50:46.919Z,0.00
2022-07-27T00:51:46.928Z,0.00
2022-07-27T00:52:46.924Z,0.00
2022-07-27T00:53:46.916Z,0.00
2022-07-27T00:54:46.930Z,0.00
2022-07-27T00:55:46.934Z,0.00
2022-07-27T00:56:46.926Z,0.00
2022-07-27T00:57:53.195Z,0.00
2022-07-27T00:58:46.931Z,0.00
2022-07-27T00:59:46.922Z,0.00
2022-07-27T01:00:46.937Z,0.00
2022-07-27T01:01:47.113Z,0.00
2022-07-27T01:02:47.318Z,0.00
2022-07-27T01:03:48.041Z,0.00
2022-07-27T01:04:47.394Z,0.00
2022-07-27T01:05:46.943Z,0.00
2022-07-27T01:06:46.939Z,0.00
2022-07-27T01:07:46.938Z,0.00
2022-07-27T01:08:46.938Z,0.00
2022-07-27T01:09:46.947Z,0.00
2022-07-27T01:10:46.954Z,0.00
2022-07-27T01:11:46.938Z,0.00
2022-07-27T01:12:46.939Z,0.00
2022-07-27T01:13:46.946Z,0.00
2022-07-27T01:14:46.953Z,0.00
2022-07-27T01:15:47.034Z,0.00
2022-07-27T01:16:46.953Z,0.00
2022-07-27T01:17:46.957Z,0.00
2022-07-27T01:18:46.957Z,0.00
2022-07-27T01:19:46.962Z,0.00
2022-07-27T01:20:46.960Z,0.00
2022-07-27T01:21:46.965Z,0.00
2022-07-27T01:22:46.955Z,0.00
2022-07-27T01:23:46.970Z,0.00
2022-07-27T01:24:46.959Z,0.00
2022-07-27T01:25:46.971Z,0.00
2022-07-27T01:26:46.970Z,0.00
2022-07-27T01:27:46.968Z,0.00
2022-07-27T01:28:46.962Z,0.00
2022-07-27T01:29:46.964Z,0.00
2022-07-27T01:30:47.103Z,0.00
2022-07-27T01:31:47.021Z,0.00
2022-07-27T01:32:46.979Z,0.00
2022-07-27T01:33:46.978Z,0.00
2022-07-27T01:34:46.982Z,0.00
2022-07-27T01:35:46.974Z,0.00
2022-07-27T01:36:46.971Z,0.00
2022-07-27T01:37:48.224Z,0.00
2022-07-27T01:38:46.984Z,0.00
2022-07-27T01:39:46.979Z,0.00
2022-07-27T01:40:46.978Z,0.00
2022-07-27T01:41:46.994Z,0.00
2022-07-27T01:42:46.985Z,0.00
2022-07-27T01:43:46.993Z,0.00
2022-07-27T01:44:46.981Z,0.00
2022-07-27T01:45:46.989Z,0.00
2022-07-27T01:46:47.058Z,0.00
2022-07-27T01:47:46.987Z,0.00
2022-07-27T01:48:47.038Z,0.00
2022-07-27T01:49:46.987Z,0.00
2022-07-27T01:50:47.807Z,0.00
2022-07-27T01:51:46.997Z,0.00
2022-07-27T01:52:47.008Z,0.00
2022-07-27T01:53:47.001Z,0.00
2022-07-27T01:54:46.996Z,0.00
2022-07-27T01:55:47.003Z,0.00
2022-07-27T01:56:46.998Z,0.00
2022-07-27T01:57:47.012Z,0.00
2022-07-27T01:58:47.003Z,0.00
2022-07-27T01:59:47.140Z,0.00
2022-07-27T02:00:47.039Z,0.00
2022-07-27T02:01:47.171Z,0.00
2022-07-27T02:02:47.008Z,0.00
2022-07-27T02:03:47.004Z,0.00
2022-07-27T02:04:47.061Z,0.00
2022-07-27T02:05:47.050Z,0.00
2022-07-27T02:06:47.019Z,0.00
2022-07-27T02:07:47.015Z,0.00
2022-07-27T02:08:47.022Z,0.00
2022-07-27T02:09:47.027Z,0.00
2022-07-27T02:10:47.014Z,0.00
2022-07-27T02:11:47.033Z,0.00
2022-07-27T02:12:47.013Z,0.00
2022-07-27T02:13:47.025Z,0.00
2022-07-27T02:14:47.030Z,0.00
2022-07-27T02:15:47.068Z,0.00
2022-07-27T02:16:47.030Z,0.00
2022-07-27T02:17:47.033Z,0.00
2022-07-27T02:18:48.766Z,0.00
2022-07-27T02:19:47.028Z,0.00
2022-07-27T02:20:47.030Z,0.00
2022-07-27T02:21:47.036Z,0.00
2022-07-27T02:22:47.038Z,0.00
2022-07-27T02:23:47.031Z,0.00
2022-07-27T02:24:47.037Z,0.00
2022-07-27T02:25:47.041Z,0.00
2022-07-27T02:26:47.045Z,0.00
2022-07-27T02:27:47.042Z,0.00
2022-07-27T02:28:47.042Z,0.00
2022-07-27T02:29:47.032Z,0.00
2022-07-27T02:30:47.047Z,0.00
2022-07-27T02:31:47.044Z,0.00
2022-07-27T02:32:47.079Z,0.00
2022-07-27T02:33:47.051Z,0.00
2022-07-27T02:34:47.043Z,0.00
2022-07-27T02:35:47.043Z,0.00
2022-07-27T02:36:47.046Z,0.00
2022-07-27T02:37:47.053Z,0.00
2022-07-27T02:38:47.057Z,0.00
2022-07-27T02:39:47.050Z,0.00
2022-07-27T02:40:47.051Z,0.00
2022-07-27T02:41:47.057Z,0.00
2022-07-27T02:42:47.074Z,0.00
2022-07-27T02:43:47.059Z,0.00
2022-07-27T02:44:47.067Z,0.00
2022-07-27T02:45:47.166Z,0.00
2022-07-27T02:46:47.119Z,0.00
2022-07-27T02:47:47.060Z,0.00
2022-07-27T02:48:47.180Z,0.00
2022-07-27T02:49:47.071Z,0.00
2022-07-27T02:50:47.065Z,0.00
2022-07-27T02:51:47.059Z,0.00
2022-07-27T02:52:47.070Z,0.00
2022-07-27T02:53:47.077Z,0.00
2022-07-27T02:54:47.081Z,0.00
2022-07-27T02:55:47.069Z,0.00
2022-07-27T02:56:47.077Z,0.00
2022-07-27T02:57:47.072Z,0.00
2022-07-27T02:58:47.078Z,0.00
2022-07-27T02:59:47.077Z,0.00
2022-07-27T03:00:47.076Z,0.00
2022-07-27T03:01:47.131Z,0.00
2022-07-27T03:02:47.090Z,0.00
2022-07-27T03:03:47.078Z,0.00
2022-07-27T03:04:47.150Z,0.00
2022-07-27T03:05:47.088Z,0.00
2022-07-27T03:06:47.087Z,0.00
2022-07-27T03:07:47.084Z,0.00
2022-07-27T03:08:47.101Z,0.00
2022-07-27T03:09:52.089Z,0.00
2022-07-27T03:10:48.637Z,0.00
2022-07-27T03:11:47.095Z,0.00
2022-07-27T03:12:47.109Z,0.00
2022-07-27T03:13:47.090Z,0.00
2022-07-27T03:14:47.138Z,0.00
2022-07-27T03:15:47.141Z,0.00
2022-07-27T03:16:47.098Z,0.00
2022-07-27T03:17:47.341Z,0.00
2022-07-27T03:18:49.619Z,0.00
2022-07-27T03:19:47.097Z,0.00
2022-07-27T03:20:47.106Z,0.00
2022-07-27T03:21:47.108Z,0.00
2022-07-27T03:22:47.098Z,0.00
2022-07-27T03:23:47.123Z,0.00
2022-07-27T03:24:47.103Z,0.00
2022-07-27T03:25:47.104Z,0.00
2022-07-27T03:26:47.116Z,4.00
2022-07-27T03:27:47.110Z,4.00
2022-07-27T03:28:47.114Z,0.00
2022-07-27T03:29:47.107Z,4.00
2022-07-27T03:30:47.223Z,4.00
2022-07-27T03:31:47.132Z,4.00
2022-07-27T03:32:47.113Z,4.00
2022-07-27T03:33:47.116Z,4.00
2022-07-27T03:34:47.114Z,8.00
2022-07-27T03:35:47.124Z,4.00
2022-07-27T03:36:47.126Z,8.00
2022-07-27T03:37:47.116Z,8.00
2022-07-27T03:38:47.141Z,8.00
2022-07-27T03:39:47.131Z,12.00
2022-07-27T03:40:47.117Z,8.00
2022-07-27T03:41:47.123Z,12.00
2022-07-27T03:42:47.120Z,12.00
2022-07-27T03:43:47.130Z,16.00
2022-07-27T03:44:47.136Z,16.00
2022-07-27T03:45:47.151Z,20.00
2022-07-27T03:46:47.141Z,20.00
2022-07-27T03:47:47.141Z,20.00
2022-07-27T03:48:47.178Z,24.00
2022-07-27T03:49:47.153Z,24.00
2022-07-27T03:50:47.145Z,28.00
2022-07-27T03:51:47.140Z,28.00
2022-07-27T03:52:47.133Z,32.00
2022-07-27T03:53:47.135Z,32.00
2022-07-27T03:54:47.144Z,32.00
2022-07-27T03:55:47.155Z,36.00
2022-07-27T03:56:47.147Z,40.00
2022-07-27T03:57:47.143Z,40.00
2022-07-27T03:58:47.151Z,44.00
2022-07-27T03:59:47.140Z,48.00
2022-07-27T04:00:47.283Z,52.00
2022-07-27T04:01:47.354Z,56.00
2022-07-27T04:02:47.241Z,60.00
2022-07-27T04:03:47.152Z,64.00
2022-07-27T04:04:47.160Z,64.00
2022-07-27T04:05:47.157Z,68.00
2022-07-27T04:06:47.151Z,72.00
2022-07-27T04:07:47.149Z,76.00
2022-07-27T04:08:47.159Z,84.00
2022-07-27T04:09:47.270Z,84.00
2022-07-27T04:10:47.158Z,88.00
2022-07-27T04:11:51.020Z,96.00
2022-07-27T04:12:47.169Z,100.00
2022-07-27T04:13:47.415Z,104.00
2022-07-27T04:14:47.158Z,108.00
2022-07-27T04:15:47.169Z,112.00
2022-07-27T04:16:47.320Z,116.00
2022-07-27T04:17:55.778Z,120.00
2022-07-27T04:18:47.161Z,124.00
2022-07-27T04:19:47.166Z,128.00
2022-07-27T04:20:47.171Z,132.00
2022-07-27T04:21:47.181Z,140.00
2022-07-27T04:22:47.176Z,144.00
2022-07-27T04:23:47.179Z,148.00
2022-07-27T04:24:47.166Z,156.00
2022-07-27T04:25:47.182Z,160.00
2022-07-27T04:26:47.172Z,164.00
2022-07-27T04:27:47.173Z,172.00
2022-07-27T04:28:47.189Z,176.00
2022-07-27T04:29:47.186Z,180.00
2022-07-27T04:30:47.255Z,184.00
2022-07-27T04:31:47.178Z,188.00
2022-07-27T04:32:47.182Z,196.00
2022-07-27T04:33:47.183Z,196.00
2022-07-27T04:34:47.178Z,196.00
2022-07-27T04:35:47.180Z,200.00
2022-07-27T04:36:47.180Z,204.00
2022-07-27T04:37:59.231Z,208.00
2022-07-27T04:38:47.190Z,216.00
2022-07-27T04:39:47.191Z,220.00
2022-07-27T04:40:47.182Z,228.00
2022-07-27T04:41:47.192Z,232.00
2022-07-27T04:42:51.225Z,236.00
2022-07-27T04:43:47.195Z,240.00
2022-07-27T04:44:47.192Z,244.00
2022-07-27T04:45:47.238Z,248.00
2022-07-27T04:46:47.190Z,252.00
2022-07-27T04:47:47.210Z,252.00
2022-07-27T04:48:49.108Z,256.00
2022-07-27T04:49:47.195Z,264.00
2022-07-27T04:50:47.214Z,272.00
2022-07-27T04:51:47.206Z,276.00
2022-07-27T04:52:47.197Z,284.00
2022-07-27T04:53:54.020Z,288.00
2022-07-27T04:54:47.204Z,296.00
2022-07-27T04:55:47.210Z,300.00
2022-07-27T04:56:47.218Z,304.00
2022-07-27T04:57:47.216Z,312.00
2022-07-27T04:58:47.206Z,316.00
2022-07-27T04:59:47.214Z,328.00
2022-07-27T05:00:47.283Z,340.00
2022-07-27T05:01:47.277Z,348.00
2022-07-27T05:02:47.216Z,360.00
2022-07-27T05:03:47.335Z,372.00
2022-07-27T05:04:47.222Z,392.00
2022-07-27T05:05:49.959Z,408.00
2022-07-27T05:06:47.224Z,432.00
2022-07-27T05:07:47.213Z,456.00
2022-07-27T05:08:47.227Z,476.00
2022-07-27T05:09:47.229Z,500.00
2022-07-27T05:10:47.217Z,532.00
2022-07-27T05:11:51.067Z,568.00
2022-07-27T05:12:47.235Z,604.00
2022-07-27T05:13:47.229Z,644.00
2022-07-27T05:14:47.234Z,680.00
2022-07-27T05:15:55.205Z,736.00
2022-07-27T05:16:47.279Z,848.00
2022-07-27T05:17:47.235Z,1020.00
2022-07-27T05:18:47.239Z,1120.00
2022-07-27T05:19:47.245Z,1160.00
2022-07-27T05:20:47.265Z,1160.00
2022-07-27T05:21:47.232Z,1168.00
2022-07-27T05:22:47.231Z,1200.00
2022-07-27T05:23:47.243Z,1396.00
2022-07-27T05:24:47.243Z,1624.00
2022-07-27T05:25:47.243Z,1632.00
2022-07-27T05:26:47.247Z,1388.00
2022-07-27T05:27:54.307Z,1888.00
2022-07-27T05:28:47.244Z,2420.00
2022-07-27T05:29:47.257Z,1944.00
2022-07-27T05:30:47.242Z,1364.00
2022-07-27T05:31:47.269Z,1376.00
2022-07-27T05:32:47.246Z,1360.00
2022-07-27T05:33:49.306Z,1372.00
2022-07-27T05:34:47.251Z,1376.00
2022-07-27T05:35:47.258Z,1424.00
2022-07-27T05:36:47.260Z,1476.00
2022-07-27T05:37:47.261Z,1460.00
2022-07-27T05:38:47.252Z,1424.00
2022-07-27T05:39:47.252Z,1448.00
2022-07-27T05:40:47.254Z,1500.00
2022-07-27T05:41:47.266Z,1560.00
2022-07-27T05:42:47.272Z,1592.00
2022-07-27T05:43:47.267Z,1580.00
2022-07-27T05:44:47.257Z,1572.00
2022-07-27T05:45:47.383Z,1568.00
2022-07-27T05:46:47.274Z,1580.00
2022-07-27T05:47:47.304Z,1612.00
2022-07-27T05:48:47.367Z,1616.00
2022-07-27T05:49:47.268Z,1628.00
2022-07-27T05:50:47.277Z,1632.00
2022-07-27T05:51:47.275Z,1632.00
2022-07-27T05:52:47.275Z,1608.00
2022-07-27T05:53:47.280Z,1600.00
2022-07-27T05:54:47.285Z,1644.00
2022-07-27T05:55:58.366Z,1652.00
2022-07-27T05:56:47.283Z,1668.00
2022-07-27T05:57:47.294Z,1688.00
2022-07-27T05:58:47.286Z,2320.00
2022-07-27T05:59:47.295Z,2772.00
2022-07-27T06:00:47.358Z,1904.00
2022-07-27T06:01:47.289Z,1804.00
2022-07-27T06:02:47.286Z,1888.00
2022-07-27T06:03:47.371Z,1988.00
2022-07-27T06:04:47.293Z,1996.00
2022-07-27T06:05:47.291Z,2076.00
2022-07-27T06:06:47.305Z,2136.00
2022-07-27T06:07:49.692Z,2276.00
2022-07-27T06:08:47.312Z,2424.00
2022-07-27T06:09:47.305Z,2576.00
2022-07-27T06:10:47.307Z,2596.00
2022-07-27T06:11:47.317Z,3592.00
2022-07-27T06:12:47.311Z,3788.00
2022-07-27T06:13:47.314Z,2760.00
2022-07-27T06:14:50.900Z,2028.00
2022-07-27T06:15:47.319Z,2048.00
2022-07-27T06:16:47.397Z,2148.00
2022-07-27T06:17:47.319Z,2216.00
2022-07-27T06:18:47.319Z,2268.00
2022-07-27T06:19:47.317Z,2236.00
2022-07-27T06:20:47.324Z,2252.00
2022-07-27T06:21:53.129Z,2332.00
2022-07-27T06:22:47.325Z,2524.00
2022-07-27T06:23:47.333Z,2804.00
2022-07-27T06:24:47.325Z,3208.00
2022-07-27T06:25:47.341Z,3044.00
2022-07-27T06:26:47.330Z,5500.00
2022-07-27T06:27:47.339Z,9076.00
2022-07-27T06:28:47.347Z,11620.00
2022-07-27T06:29:47.351Z,7984.00
2022-07-27T06:30:47.350Z,4148.00
2022-07-27T06:31:47.448Z,2664.00
2022-07-27T06:32:47.347Z,2608.00
2022-07-27T06:33:50.379Z,2620.00
2022-07-27T06:34:47.353Z,2488.00
2022-07-27T06:35:47.345Z,2216.00
2022-07-27T06:36:47.350Z,2096.00
2022-07-27T06:37:47.364Z,1808.00
2022-07-27T06:38:47.359Z,1492.00
2022-07-27T06:39:47.362Z,1336.00
2022-07-27T06:40:47.365Z,1328.00
2022-07-27T06:41:47.371Z,976.00
2022-07-27T06:42:47.381Z,1128.00
2022-07-27T06:43:47.376Z,1308.00
2022-07-27T06:44:47.391Z,1440.00
2022-07-27T06:45:47.390Z,1256.00
2022-07-27T06:46:47.445Z,1272.00
2022-07-27T06:47:49.609Z,1136.00
2022-07-27T06:48:47.429Z,1024.00
2022-07-27T06:49:47.377Z,1300.00
2022-07-27T06:50:47.381Z,1136.00
2022-07-27T06:51:47.384Z,1284.00
2022-07-27T06:52:47.411Z,1168.00
2022-07-27T06:53:47.384Z,1196.00
2022-07-27T06:54:47.391Z,1368.00
2022-07-27T06:55:47.395Z,1760.00
2022-07-27T06:56:47.396Z,1896.00
2022-07-27T06:57:47.399Z,1664.00
2022-07-27T06:58:47.404Z,1772.00
2022-07-27T06:59:47.392Z,1976.00
2022-07-27T07:00:47.580Z,1996.00
2022-07-27T07:01:48.944Z,1840.00
2022-07-27T07:02:47.403Z,1996.00
2022-07-27T07:03:47.480Z,2396.00
2022-07-27T07:04:47.417Z,2196.00
2022-07-27T07:05:47.413Z,2476.00
2022-07-27T07:06:47.422Z,2588.00
2022-07-27T07:07:47.417Z,2092.00
2022-07-27T07:08:47.425Z,7388.00
2022-07-27T07:09:47.427Z,9468.00
2022-07-27T07:10:47.429Z,10360.00
2022-07-27T07:11:47.421Z,17368.00
2022-07-27T07:12:47.427Z,27040.00
2022-07-27T07:13:47.432Z,30144.00
2022-07-27T07:14:47.430Z,31424.00
2022-07-27T07:15:47.489Z,30880.00
2022-07-27T07:16:47.464Z,31104.00
2022-07-27T07:17:47.436Z,32192.00
2022-07-27T07:18:52.021Z,31456.00
2022-07-27T07:19:47.439Z,29952.00
2022-07-27T07:20:47.444Z,30080.00
2022-07-27T07:21:47.437Z,29760.00
2022-07-27T07:22:47.445Z,31232.00
2022-07-27T07:23:47.445Z,32576.00
2022-07-27T07:24:47.462Z,30336.00
2022-07-27T07:25:47.453Z,30528.00
2022-07-27T07:26:47.455Z,31264.00
2022-07-27T07:27:47.460Z,30368.00
2022-07-27T07:28:47.463Z,31712.00
2022-07-27T07:29:47.470Z,31232.00
2022-07-27T07:30:47.467Z,31200.00
2022-07-27T07:31:47.579Z,30688.00
2022-07-27T07:32:47.475Z,30784.00
2022-07-27T07:33:47.475Z,29600.00
2022-07-27T07:34:47.463Z,28832.00
2022-07-27T07:36:13.883Z,28992.00
2022-07-27T07:36:47.478Z,29088.00
2022-07-27T07:37:49.755Z,28896.00
2022-07-27T07:38:47.482Z,30432.00
2022-07-27T07:39:47.486Z,33504.00
2022-07-27T07:40:47.487Z,33568.00
2022-07-27T07:41:47.489Z,34080.00
2022-07-27T07:42:47.504Z,31520.00
2022-07-27T07:43:47.492Z,24864.00
2022-07-27T07:44:47.494Z,19552.00
2022-07-27T07:45:51.355Z,12484.00
2022-07-27T07:46:47.655Z,8656.00
2022-07-27T07:47:47.496Z,11564.00
2022-07-27T07:48:47.580Z,24576.00
2022-07-27T07:49:47.521Z,28576.00
2022-07-27T07:50:51.838Z,17888.00
2022-07-27T07:51:47.506Z,20000.00
2022-07-27T07:52:47.516Z,5404.00
2022-07-27T07:53:47.531Z,31968.00
2022-07-27T07:54:47.517Z,28480.00
2022-07-27T07:55:47.523Z,18592.00
2022-07-27T07:56:47.514Z,11188.00
2022-07-27T07:57:47.518Z,8784.00
2022-07-27T07:58:47.524Z,8568.00
2022-07-27T07:59:47.521Z,11296.00
2022-07-27T08:00:47.537Z,11940.00
2022-07-27T08:01:47.586Z,12952.00
2022-07-27T08:02:47.619Z,24992.00
2022-07-27T08:03:51.042Z,34496.00
2022-07-27T08:04:47.548Z,40160.00
2022-07-27T08:05:47.563Z,39712.00
2022-07-27T08:06:47.561Z,44480.00
2022-07-27T08:07:47.551Z,47616.00
2022-07-27T08:08:47.559Z,46848.00
2022-07-27T08:09:47.552Z,46208.00
2022-07-27T08:10:47.904Z,47552.00
2022-07-27T08:11:47.565Z,50336.00
2022-07-27T08:12:47.568Z,50336.00
2022-07-27T08:13:47.579Z,45888.00
2022-07-27T08:14:47.564Z,46304.00
2022-07-27T08:15:47.592Z,46592.00
2022-07-27T08:16:49.038Z,44832.00
2022-07-27T08:17:47.582Z,44384.00
2022-07-27T08:18:47.582Z,46496.00
2022-07-27T08:19:47.573Z,41536.00
2022-07-27T08:20:47.587Z,35264.00
2022-07-27T08:21:47.592Z,33344.00
2022-07-27T08:22:47.585Z,32480.00
2022-07-27T08:23:47.623Z,30912.00
2022-07-27T08:24:47.591Z,30272.00
2022-07-27T08:25:47.603Z,29344.00
2022-07-27T08:26:47.609Z,28736.00
2022-07-27T08:27:47.680Z,28096.00
2022-07-27T08:28:47.606Z,27168.00
2022-07-27T08:29:47.603Z,27232.00
2022-07-27T08:30:47.615Z,28992.00
2022-07-27T08:31:52.914Z,30368.00
2022-07-27T08:32:47.625Z,30592.00
2022-07-27T08:33:47.621Z,31360.00
2022-07-27T08:34:47.624Z,12388.00
2022-07-27T08:35:47.636Z,34688.00
2022-07-27T08:36:47.639Z,3500.00
2022-07-27T08:37:47.644Z,2040.00
2022-07-27T08:38:47.637Z,1708.00
2022-07-27T08:40:48.201Z,18944.00
2022-07-27T08:41:47.646Z,40672.00
2022-07-27T08:42:47.642Z,39520.00
2022-07-27T08:43:47.658Z,32192.00
2022-07-27T08:44:47.653Z,26496.00
2022-07-27T08:45:47.661Z,35072.00
2022-07-27T08:46:47.724Z,12564.00
2022-07-27T08:47:47.664Z,32800.00
2022-07-27T08:48:47.687Z,34464.00
2022-07-27T08:49:49.682Z,34112.00
2022-07-27T08:50:47.676Z,35968.00
2022-07-27T08:51:47.671Z,3488.00
2022-07-27T08:52:47.674Z,28832.00
2022-07-27T08:53:53.105Z,1320.00
2022-07-27T08:54:47.693Z,1108.00
2022-07-27T08:55:47.697Z,1020.00
2022-07-27T08:56:47.695Z,840.00
2022-07-27T08:57:47.703Z,816.00
2022-07-27T08:58:47.702Z,820.00
2022-07-27T08:59:47.690Z,888.00
2022-07-27T09:00:47.706Z,1472.00
2022-07-27T09:01:47.808Z,30752.00
2022-07-27T09:02:47.758Z,30208.00
2022-07-27T09:03:47.865Z,20000.00
2022-07-27T09:04:47.730Z,8516.00
2022-07-27T09:05:47.717Z,3440.00
2022-07-27T09:06:53.205Z,2848.00
2022-07-27T09:07:47.721Z,2736.00
2022-07-27T09:08:53.144Z,1948.00
2022-07-27T09:09:47.727Z,1488.00
2022-07-27T09:10:47.729Z,1300.00
2022-07-27T09:11:47.737Z,1324.00
2022-07-27T09:12:47.739Z,1324.00
2022-07-27T09:13:47.741Z,1188.00
2022-07-27T09:14:52.885Z,1200.00
2022-07-27T09:16:15.861Z,1312.00
2022-07-27T09:17:46.100Z,1484.00
2022-07-27T09:17:49.427Z,1596.00
2022-07-27T09:18:47.776Z,1500.00
2022-07-27T09:19:47.744Z,1432.00
2022-07-27T09:20:47.757Z,1224.00
2022-07-27T09:21:47.757Z,1176.00
2022-07-27T09:22:47.757Z,1048.00
2022-07-27T09:23:48.366Z,1012.00
2022-07-27T09:24:48.099Z,856.00
2022-07-27T09:26:02.858Z,832.00
2022-07-27T09:26:47.776Z,640.00
2022-07-27T09:27:47.774Z,624.00
2022-07-27T09:28:47.777Z,672.00
2022-07-27T09:29:47.772Z,752.00
2022-07-27T09:30:47.813Z,848.00
2022-07-27T09:31:47.899Z,960.00
2022-07-27T09:32:52.512Z,1012.00
2022-07-27T09:33:47.796Z,968.00
2022-07-27T09:34:47.789Z,924.00
2022-07-27T09:35:47.803Z,904.00
2022-07-27T09:36:47.797Z,908.00
2022-07-27T09:37:47.797Z,976.00
2022-07-27T09:38:53.522Z,1016.00
2022-07-27T09:39:47.798Z,1108.00
2022-07-27T09:40:48.617Z,1144.00
2022-07-27T09:41:47.813Z,1148.00
2022-07-27T09:44:53.411Z,1616.00
2022-07-27T09:45:51.342Z,1736.00
2022-07-27T09:46:47.901Z,1460.00
2022-07-27T09:47:47.822Z,1256.00
2022-07-27T09:48:47.918Z,1200.00
2022-07-27T09:49:47.828Z,1032.00
2022-07-27T09:51:01.362Z,1172.00
2022-07-27T09:52:03.571Z,1080.00
2022-07-27T09:52:47.834Z,1124.00
2022-07-27T09:53:47.844Z,972.00
2022-07-27T09:54:47.836Z,1024.00
2022-07-27T09:55:47.861Z,1080.00
2022-07-27T09:56:47.862Z,1148.00
2022-07-27T09:57:47.867Z,1200.00
2022-07-27T09:58:47.853Z,1232.00
2022-07-27T09:59:47.861Z,1252.00
2022-07-27T10:00:47.861Z,1320.00
2022-07-27T10:01:54.095Z,1412.00
2022-07-27T10:02:47.861Z,1480.00
2022-07-27T10:03:47.868Z,1508.00
2022-07-27T10:04:47.915Z,1528.00
2022-07-27T10:05:47.874Z,1560.00
2022-07-27T10:07:02.283Z,1692.00
2022-07-27T10:07:47.877Z,1588.00
2022-07-27T10:08:47.885Z,1708.00
2022-07-27T10:09:47.929Z,1672.00
2022-07-27T10:10:47.896Z,1668.00
2022-07-27T10:11:47.886Z,1668.00
2022-07-27T10:12:53.672Z,1712.00
2022-07-27T10:13:47.879Z,1756.00
2022-07-27T10:14:47.886Z,1792.00
2022-07-27T10:15:47.953Z,1796.00
2022-07-27T10:16:47.893Z,1820.00
2022-07-27T10:17:47.891Z,1696.00
2022-07-27T10:18:50.858Z,1576.00
2022-07-27T10:19:47.906Z,1488.00
2022-07-27T10:20:47.945Z,1244.00
2022-07-27T10:21:47.909Z,1080.00
2022-07-27T10:22:47.919Z,968.00
2022-07-27T10:23:47.912Z,888.00
2022-07-27T10:24:53.032Z,836.00
2022-07-27T10:25:47.914Z,832.00
2022-07-27T10:26:47.935Z,856.00
2022-07-27T10:27:47.912Z,856.00
2022-07-27T10:28:47.920Z,868.00
2022-07-27T10:29:47.926Z,916.00
2022-07-27T10:30:53.839Z,1008.00
2022-07-27T10:31:47.916Z,1108.00
2022-07-27T10:32:47.935Z,1204.00
2022-07-27T10:33:47.927Z,1248.00
2022-07-27T10:34:47.938Z,1268.00
2022-07-27T10:35:47.934Z,1336.00
2022-07-27T10:36:47.933Z,1412.00
2022-07-27T10:37:47.935Z,1464.00
2022-07-27T10:38:47.939Z,1552.00
2022-07-27T10:39:47.947Z,1660.00
2022-07-27T10:40:47.944Z,1740.00
2022-07-27T10:41:47.957Z,1812.00
2022-07-27T10:42:53.582Z,1820.00
2022-07-27T10:43:47.946Z,1844.00
2022-07-27T10:44:47.956Z,1864.00
2022-07-27T10:45:53.923Z,1868.00
2022-07-27T10:46:47.977Z,1884.00
2022-07-27T10:47:47.964Z,1876.00
2022-07-27T10:48:49.210Z,1888.00
2022-07-27T10:49:47.967Z,1936.00
2022-07-27T10:50:47.984Z,1948.00
2022-07-27T10:51:47.969Z,1984.00
2022-07-27T10:52:47.966Z,2036.00
2022-07-27T10:54:17.948Z,2036.00
2022-07-27T10:54:52.671Z,2036.00
2022-07-27T10:55:47.973Z,2080.00
2022-07-27T10:56:47.987Z,2152.00
2022-07-27T10:57:47.977Z,2072.00
2022-07-27T10:58:47.997Z,2064.00
2022-07-27T11:00:53.611Z,2076.00
2022-07-27T11:01:48.104Z,2112.00
2022-07-27T11:02:47.986Z,2040.00
2022-07-27T11:03:47.999Z,1940.00
2022-07-27T11:04:48.056Z,1848.00
2022-07-27T11:06:30.633Z,1720.00
2022-07-27T11:07:22.477Z,1664.00
2022-07-27T11:08:13.452Z,1672.00
2022-07-27T11:09:01.739Z,1672.00
2022-07-27T11:10:04.937Z,1652.00
2022-07-27T11:10:48.015Z,1632.00
2022-07-27T11:11:48.008Z,1564.00
2022-07-27T11:12:48.016Z,1484.00
2022-07-27T11:13:48.019Z,1456.00
2022-07-27T11:14:48.025Z,1468.00
2022-07-27T11:15:48.016Z,1532.00
2022-07-27T11:16:55.249Z,1556.00
2022-07-27T11:17:57.545Z,1640.00
2022-07-27T11:18:53.037Z,1492.00
2022-07-27T11:19:48.025Z,1256.00
2022-07-27T11:20:48.036Z,1196.00
2022-07-27T11:21:48.027Z,1212.00
2022-07-27T11:23:49.545Z,1252.00
2022-07-27T11:23:51.419Z,1300.00
2022-07-27T11:24:48.033Z,1312.00
2022-07-27T11:25:48.045Z,1316.00
2022-07-27T11:26:48.044Z,1324.00
2022-07-27T11:27:48.039Z,1344.00
2022-07-27T11:28:48.054Z,1444.00
2022-07-27T11:29:48.047Z,1480.00
2022-07-27T11:30:48.104Z,1532.00
2022-07-27T11:31:57.316Z,1488.00
2022-07-27T11:32:48.055Z,1432.00
2022-07-27T11:33:48.057Z,1368.00
2022-07-27T11:34:48.052Z,1276.00
2022-07-27T11:35:48.053Z,1132.00
2022-07-27T11:36:48.068Z,1024.00
2022-07-27T11:37:48.060Z,984.00
2022-07-27T11:38:48.066Z,996.00
2022-07-27T11:40:00.311Z,1012.00
2022-07-27T11:40:57.112Z,1008.00
2022-07-27T11:42:08.715Z,976.00
2022-07-27T11:42:48.146Z,1020.00
2022-07-27T11:43:48.105Z,1068.00
2022-07-27T11:44:48.085Z,1012.00
2022-07-27T11:45:48.182Z,1032.00
2022-07-27T11:46:48.093Z,1020.00
2022-07-27T11:47:48.094Z,1040.00
2022-07-27T11:49:05.510Z,1128.00
2022-07-27T11:49:48.173Z,1168.00
2022-07-27T11:50:48.091Z,1172.00
2022-07-27T11:51:48.105Z,1176.00
2022-07-27T11:52:48.088Z,1140.00
2022-07-27T11:53:48.103Z,1188.00
2022-07-27T11:54:48.101Z,1264.00
2022-07-27T11:55:48.103Z,1284.00
2022-07-27T11:56:48.094Z,1308.00
2022-07-27T11:57:48.113Z,1252.00
2022-07-27T11:58:48.106Z,1184.00
2022-07-27T11:59:48.108Z,1096.00
2022-07-27T12:00:48.106Z,1032.00
2022-07-27T12:01:48.113Z,1060.00
2022-07-27T12:02:48.179Z,1028.00
2022-07-27T12:03:48.117Z,1040.00
2022-07-27T12:04:48.164Z,1068.00
2022-07-27T12:05:48.124Z,1104.00
2022-07-27T12:06:48.115Z,1132.00
2022-07-27T12:07:48.128Z,1108.00
2022-07-27T12:08:48.120Z,1088.00
2022-07-27T12:09:48.131Z,1144.00
2022-07-27T12:10:48.132Z,1164.00
2022-07-27T12:11:48.146Z,1092.00
2022-07-27T12:12:48.135Z,1040.00
2022-07-27T12:13:48.130Z,1148.00
2022-07-27T12:14:48.180Z,1204.00
2022-07-27T12:15:48.183Z,1220.00
2022-07-27T12:16:48.223Z,1232.00
2022-07-27T12:17:48.150Z,1260.00
2022-07-27T12:18:48.146Z,1228.00
2022-07-27T12:19:48.151Z,1188.00
2022-07-27T12:20:48.239Z,1172.00
2022-07-27T12:21:48.571Z,1172.00
2022-07-27T12:22:48.158Z,1188.00
2022-07-27T12:23:48.156Z,1200.00
2022-07-27T12:24:48.158Z,1184.00
2022-07-27T12:25:48.158Z,1172.00
2022-07-27T12:26:48.156Z,1164.00
2022-07-27T12:27:48.221Z,1136.00
2022-07-27T12:28:48.168Z,1116.00
2022-07-27T12:29:48.169Z,1084.00
2022-07-27T12:30:48.298Z,1008.00
2022-07-27T12:31:48.271Z,936.00